Airfield :
LOGIN :

Register | Disclaimer

   EN    FR    IT 

 










Legend :    VFR   Marginal VFR   IFR   Intensive IFR   Very Intensive IFR
Visi :
Ceiling :
>= 8 km
>= 3000ft
5 to 8 km
1000 to 3000 ft
1500m to 5 km
500 to 1000 ft
800 to 1500m
200 to 500 ft
< 800m
< 200 ft
Symbols :   Thunderstorms  Fog  Heavy snow  Heavy precipitations  Wind > 20 kt
SIGMETs :     Misc.  Thunderstorms  Icing  Turbulence  Mountain Waves  Volcanic Ashes






- Airport Elevation : 863 ft
- IATA code : ZAZ


LEZG - Zaragoza Aragon

CURRENT METAR :
  • 152300Z 11006KT CAVOK 09/05 Q1011

EXPIRED METARs :
  • 152230Z 09006KT CAVOK 09/05 Q1011
  • 152200Z 18008KT CAVOK 11/05 Q1011
  • 152130Z 18007KT CAVOK 11/05 Q1012
  • 152100Z 18006KT CAVOK 11/05 Q1012
  • 152030Z 19007KT 150V250 CAVOK 11/05 Q1012

TAF AMD TAF LEZG
Valid from the 15 at 18:00 until the 16 at 18:00 UTC


151804Z 1518/1618 18005KT 9999 FEW050 TX14/1614Z TN07/1606Z
BECMG 1608/1610 12015KT



MET'MAP, your aeronautical weather chart ! - Copyright ORBIFLY December 2007 - Disclaimer

ORBIFLY MET'MAP TEAM :

Programming & Development : Alexandra Zaïnal
Concept & original design : Baudouin d'Aumeries
Assistance for programming : Marc-Olivier Méhu
Technical & hardware support : Manuel Goepfert

Contact : metmap@orbifly.com




SOURCES & CREDITS :

   NOAA